Time;durP1;ratioP1;P1;durP2;ratioP2;P2;SDS_P1;SDS_P2;PMS_P1;PMS_P2;Temp;Humidity;BMP_temperature;BMP_pressure;BME280_temperature;BME280_humidity;BME280_pressure;Samples;Min_cycle;Max_cycle;Signal;HPM_P1;HPM_P2
2022/08/31 00:04:06;;;;;;;7.40;4.50;;;;;;;;;;4937656;29;20034;-41
2022/08/31 00:06:34;;;;;;;8.60;5.28;;;;;;;;;;4937476;29;20465;-40
2022/08/31 00:09:01;;;;;;;7.45;4.65;;;;;;;;;;4937412;29;20038;-40
2022/08/31 00:11:29;;;;;;;10.30;4.88;;;;;;;;;;4937478;29;20094;-40
2022/08/31 00:14:00;;;;;;;7.88;4.95;;;;;;;;;;4937352;29;20115;-40
2022/08/31 00:16:29;;;;;;;7.00;4.80;;;;;;;;;;4937423;29;20125;-41
2022/08/31 00:18:55;;;;;;;9.68;4.85;;;;;;;;;;4937333;29;20039;-40
2022/08/31 00:21:24;;;;;;;8.85;4.72;;;;;;;;;;4937189;29;20024;-40
2022/08/31 00:23:51;;;;;;;10.50;4.33;;;;;;;;;;4937235;29;20526;-40
2022/08/31 00:26:17;;;;;;;15.88;4.50;;;;;;;;;;4937107;29;20277;-38
2022/08/31 00:28:42;;;;;;;14.02;4.38;;;;;;;;;;4937385;29;20107;-38
2022/08/31 00:31:08;;;;;;;8.85;5.13;;;;;;;;;;4937065;29;20107;-38
2022/08/31 00:33:35;;;;;;;13.90;5.00;;;;;;;;;;4937279;29;20027;-38
2022/08/31 00:36:06;;;;;;;8.20;5.05;;;;;;;;;;4937131;29;20086;-38
2022/08/31 00:38:32;;;;;;;8.15;4.47;;;;;;;;;;4936926;29;20027;-39
2022/08/31 00:40:59;;;;;;;6.95;4.82;;;;;;;;;;4936679;29;20084;-38
2022/08/31 00:43:39;;;;;;;4.97;4.10;;;;;;;;;;4936442;29;20103;-39
2022/08/31 00:46:06;;;;;;;6.15;4.30;;;;;;;;;;4937024;29;20039;-39
2022/08/31 00:48:33;;;;;;;7.82;4.68;;;;;;;;;;4936495;29;20047;-39
2022/08/31 00:50:59;;;;;;;5.78;4.20;;;;;;;;;;4936705;29;20032;-40
2022/08/31 00:53:26;;;;;;;4.18;3.53;;;;;;;;;;4936698;29;20031;-40
2022/08/31 00:55:51;;;;;;;4.68;2.80;;;;;;;;;;4936522;29;20036;-39
2022/08/31 00:58:17;;;;;;;4.13;3.50;;;;;;;;;;4935561;29;20024;-39
2022/08/31 01:00:43;;;;;;;4.38;3.00;;;;;;;;;;4936549;29;20032;-40
2022/08/31 01:03:09;;;;;;;7.97;3.63;;;;;;;;;;4936499;29;20028;-40
2022/08/31 01:05:36;;;;;;;3.05;2.13;;;;;;;;;;4936501;29;20218;-39
2022/08/31 01:08:04;;;;;;;4.60;3.33;;;;;;;;;;4936355;29;20083;-39
2022/08/31 01:10:37;;;;;;;3.65;2.85;;;;;;;;;;4936314;29;20537;-40
2022/08/31 01:13:03;;;;;;;4.72;3.05;;;;;;;;;;4936308;29;20020;-39
2022/08/31 01:15:30;;;;;;;3.55;3.17;;;;;;;;;;4936415;29;20424;-40
2022/08/31 01:17:59;;;;;;;6.47;3.55;;;;;;;;;;4936473;29;20376;-39
2022/08/31 01:20:45;;;;;;;6.07;2.45;;;;;;;;;;4936704;29;20019;-39
2022/08/31 01:23:23;;;;;;;6.68;2.85;;;;;;;;;;4936218;29;20395;-38
2022/08/31 01:25:51;;;;;;;2.70;2.45;;;;;;;;;;4936047;29;20031;-39
2022/08/31 01:28:17;;;;;;;4.70;3.30;;;;;;;;;;4936274;29;20039;-39
2022/08/31 01:30:55;;;;;;;2.50;2.30;;;;;;;;;;4935979;29;20396;-40
2022/08/31 01:33:21;;;;;;;4.88;2.38;;;;;;;;;;4936487;29;20035;-40
2022/08/31 01:35:46;;;;;;;4.85;2.15;;;;;;;;;;4935832;29;20083;-40
2022/08/31 01:38:12;;;;;;;3.42;2.20;;;;;;;;;;4935896;29;20019;-40
2022/08/31 01:40:46;;;;;;;3.08;2.35;;;;;;;;;;4936101;29;20028;-40
2022/08/31 01:43:11;;;;;;;5.82;2.70;;;;;;;;;;4936103;29;20036;-40
2022/08/31 01:45:37;;;;;;;5.75;3.00;;;;;;;;;;4935779;29;20448;-40
2022/08/31 01:48:02;;;;;;;2.97;2.03;;;;;;;;;;4935661;29;20421;-39
2022/08/31 01:50:28;;;;;;;3.92;3.00;;;;;;;;;;4935441;29;20051;-40
2022/08/31 01:52:53;;;;;;;4.93;2.53;;;;;;;;;;4935663;29;20384;-40
2022/08/31 01:55:19;;;;;;;5.22;3.03;;;;;;;;;;4935537;29;20043;-40
2022/08/31 01:57:44;;;;;;;4.07;3.38;;;;;;;;;;4935830;29;20044;-41
2022/08/31 02:00:10;;;;;;;7.47;3.47;;;;;;;;;;4935770;29;20102;-40
2022/08/31 02:02:36;;;;;;;5.78;3.03;;;;;;;;;;4935739;29;20032;-41
2022/08/31 02:05:02;;;;;;;3.85;3.03;;;;;;;;;;4935481;29;20375;-40
2022/08/31 02:07:27;;;;;;;7.20;3.45;;;;;;;;;;4935384;29;20020;-40
2022/08/31 02:09:53;;;;;;;3.22;2.92;;;;;;;;;;4935689;29;20032;-39
2022/08/31 02:12:18;;;;;;;4.85;3.22;;;;;;;;;;4935387;29;20028;-38
2022/08/31 02:14:44;;;;;;;2.95;2.65;;;;;;;;;;4935307;29;20024;-38
2022/08/31 02:17:09;;;;;;;4.68;3.17;;;;;;;;;;4935608;29;20035;-38
2022/08/31 02:19:35;;;;;;;4.93;3.20;;;;;;;;;;4935286;29;20028;-39
2022/08/31 02:22:00;;;;;;;9.15;3.72;;;;;;;;;;4935290;29;20028;-38
2022/08/31 02:24:26;;;;;;;4.68;3.05;;;;;;;;;;4935170;29;20031;-39
2022/08/31 02:26:51;;;;;;;4.13;2.22;;;;;;;;;;4935253;29;20035;-39
2022/08/31 02:29:17;;;;;;;5.43;3.10;;;;;;;;;;4935244;29;20020;-40
2022/08/31 02:31:42;;;;;;;2.33;1.77;;;;;;;;;;4935181;29;20027;-40
2022/08/31 02:34:08;;;;;;;8.00;2.22;;;;;;;;;;4935386;29;20472;-39
2022/08/31 02:36:34;;;;;;;3.42;2.60;;;;;;;;;;4935365;29;20443;-39
2022/08/31 02:38:59;;;;;;;4.28;2.97;;;;;;;;;;4935134;29;20480;-38
2022/08/31 02:41:25;;;;;;;3.17;2.85;;;;;;;;;;4935115;29;20027;-38
2022/08/31 02:43:50;;;;;;;9.18;2.50;;;;;;;;;;4935323;29;20126;-39
2022/08/31 02:46:16;;;;;;;12.02;2.40;;;;;;;;;;4935029;29;20034;-39
2022/08/31 02:48:41;;;;;;;4.80;3.15;;;;;;;;;;4934757;29;20192;-39
2022/08/31 02:51:09;;;;;;;6.65;2.85;;;;;;;;;;4935016;29;20042;-39
2022/08/31 02:53:35;;;;;;;6.50;3.10;;;;;;;;;;4935204;29;20420;-38
2022/08/31 02:56:01;;;;;;;4.03;2.83;;;;;;;;;;4934896;29;20039;-38
2022/08/31 02:58:27;;;;;;;3.33;2.85;;;;;;;;;;4935253;29;20121;-39
2022/08/31 03:00:53;;;;;;;5.15;3.40;;;;;;;;;;4934921;29;20028;-39
2022/08/31 03:03:19;;;;;;;2.65;2.20;;;;;;;;;;4935200;29;20128;-38
2022/08/31 03:05:44;;;;;;;6.25;2.55;;;;;;;;;;4937366;29;20460;-39
2022/08/31 03:08:10;;;;;;;5.53;2.70;;;;;;;;;;4938591;29;20043;-39
2022/08/31 03:10:35;;;;;;;3.00;2.70;;;;;;;;;;4938772;29;20031;-40
2022/08/31 03:13:01;;;;;;;6.70;2.83;;;;;;;;;;4938547;29;20111;-40
2022/08/31 03:15:27;;;;;;;2.63;2.38;;;;;;;;;;4938415;29;20496;-40
2022/08/31 03:17:53;;;;;;;3.97;2.90;;;;;;;;;;4938363;29;20059;-39
2022/08/31 03:20:21;;;;;;;3.83;2.40;;;;;;;;;;4938594;29;20026;-39
2022/08/31 03:22:46;;;;;;;4.30;2.97;;;;;;;;;;4938552;29;20032;-40
2022/08/31 03:25:13;;;;;;;3.60;2.85;;;;;;;;;;4938495;29;20444;-40
2022/08/31 03:27:38;;;;;;;3.13;2.20;;;;;;;;;;4938218;29;20480;-40
2022/08/31 03:30:08;;;;;;;2.20;2.00;;;;;;;;;;4938416;29;20062;-39
2022/08/31 03:32:34;;;;;;;3.15;2.85;;;;;;;;;;4938179;29;20107;-39
2022/08/31 03:35:00;;;;;;;3.78;2.28;;;;;;;;;;4938345;29;20110;-39
2022/08/31 03:37:26;;;;;;;3.33;2.47;;;;;;;;;;4938002;29;20387;-40
2022/08/31 03:39:51;;;;;;;3.65;2.40;;;;;;;;;;4938019;29;20036;-40
2022/08/31 03:42:18;;;;;;;3.53;2.88;;;;;;;;;;4938244;29;20046;-39
2022/08/31 03:44:45;;;;;;;5.53;3.28;;;;;;;;;;4938144;29;20033;-38
2022/08/31 03:47:11;;;;;;;6.20;3.28;;;;;;;;;;4937802;29;20484;-38
2022/08/31 03:49:37;;;;;;;3.80;3.08;;;;;;;;;;4937773;29;20051;-39
2022/08/31 03:52:03;;;;;;;3.10;2.80;;;;;;;;;;4937855;29;20087;-41
2022/08/31 03:54:29;;;;;;;6.10;3.22;;;;;;;;;;4937747;29;20031;-40
2022/08/31 03:56:54;;;;;;;4.18;3.00;;;;;;;;;;4937682;29;20036;-39
2022/08/31 03:59:20;;;;;;;5.20;3.20;;;;;;;;;;4937981;29;20039;-40
2022/08/31 04:01:45;;;;;;;6.28;2.95;;;;;;;;;;4937922;29;20482;-40
2022/08/31 04:04:12;;;;;;;4.40;3.40;;;;;;;;;;4937591;29;20441;-40
2022/08/31 04:06:43;;;;;;;5.60;3.28;;;;;;;;;;4937525;29;20472;-40
2022/08/31 04:09:09;;;;;;;5.03;3.25;;;;;;;;;;4937723;29;20357;-41
2022/08/31 04:11:38;;;;;;;9.15;2.97;;;;;;;;;;4937459;29;20087;-39
2022/08/31 04:14:04;;;;;;;4.13;2.93;;;;;;;;;;4937494;29;20032;-39
2022/08/31 04:16:31;;;;;;;4.38;2.78;;;;;;;;;;4935044;29;20473;-39
2022/08/31 04:18:57;;;;;;;5.53;3.00;;;;;;;;;;4937377;29;20028;-39
2022/08/31 04:21:25;;;;;;;6.72;3.30;;;;;;;;;;4937250;29;20054;-40
2022/08/31 04:23:52;;;;;;;4.35;3.10;;;;;;;;;;4937172;29;20039;-38
2022/08/31 04:26:22;;;;;;;4.03;3.10;;;;;;;;;;4937177;29;20055;-40
2022/08/31 04:28:48;;;;;;;3.88;3.15;;;;;;;;;;4937111;29;20030;-39
2022/08/31 04:31:13;;;;;;;4.45;3.10;;;;;;;;;;4937313;29;20027;-39
2022/08/31 04:33:40;;;;;;;8.65;3.15;;;;;;;;;;4936977;29;20080;-39
2022/08/31 04:36:11;;;;;;;9.05;3.03;;;;;;;;;;4936932;29;20038;-39
2022/08/31 04:38:36;;;;;;;2.63;1.98;;;;;;;;;;4936937;29;20387;-39
2022/08/31 04:41:10;;;;;;;5.32;2.35;;;;;;;;;;4936952;29;20112;-39
2022/08/31 04:43:37;;;;;;;4.78;3.00;;;;;;;;;;4936919;29;20030;-39
2022/08/31 04:46:04;;;;;;;2.33;2.13;;;;;;;;;;4936843;29;20035;-39
2022/08/31 04:48:31;;;;;;;2.72;2.28;;;;;;;;;;4936567;29;20543;-41
2022/08/31 04:51:11;;;;;;;5.05;2.65;;;;;;;;;;4936769;29;20503;-39
2022/08/31 04:53:37;;;;;;;2.15;1.65;;;;;;;;;;4935466;29;20440;-38
2022/08/31 04:56:12;;;;;;;3.85;2.38;;;;;;;;;;4936492;29;20031;-39
2022/08/31 04:58:38;;;;;;;2.22;1.98;;;;;;;;;;4936646;29;20062;-38
2022/08/31 05:01:07;;;;;;;5.32;2.72;;;;;;;;;;4936538;29;20133;-38
2022/08/31 05:03:33;;;;;;;4.45;2.85;;;;;;;;;;4936772;29;20031;-40
2022/08/31 05:05:59;;;;;;;4.95;2.65;;;;;;;;;;4935213;29;20032;-38
2022/08/31 05:08:24;;;;;;;3.20;2.38;;;;;;;;;;4935251;29;20103;-39
2022/08/31 05:10:50;;;;;;;3.20;1.90;;;;;;;;;;4935017;29;20059;-39
2022/08/31 05:13:15;;;;;;;2.10;1.48;;;;;;;;;;4936304;29;20031;-39
2022/08/31 05:15:42;;;;;;;3.08;2.50;;;;;;;;;;4936428;29;20042;-39
2022/08/31 05:18:08;;;;;;;2.60;2.05;;;;;;;;;;4936202;29;20369;-40
2022/08/31 05:20:34;;;;;;;4.05;3.00;;;;;;;;;;4936101;29;20118;-39
2022/08/31 05:23:00;;;;;;;7.15;2.80;;;;;;;;;;4936120;29;20107;-38
2022/08/31 05:25:26;;;;;;;1.52;1.42;;;;;;;;;;4935998;29;20059;-38
2022/08/31 05:27:54;;;;;;;4.68;2.25;;;;;;;;;;4935707;29;20032;-40
2022/08/31 05:30:20;;;;;;;3.47;2.30;;;;;;;;;;4935923;29;20486;-41
2022/08/31 05:32:45;;;;;;;7.28;2.35;;;;;;;;;;4936238;29;20027;-40
2022/08/31 05:35:12;;;;;;;3.95;2.00;;;;;;;;;;4935823;29;20083;-40
2022/08/31 05:37:38;;;;;;;2.38;2.13;;;;;;;;;;4935846;29;20024;-40
2022/08/31 05:40:05;;;;;;;5.28;2.88;;;;;;;;;;4935842;29;20023;-39
2022/08/31 05:42:30;;;;;;;4.25;2.60;;;;;;;;;;4935973;29;20027;-38
2022/08/31 05:44:56;;;;;;;6.95;2.95;;;;;;;;;;4935736;29;20547;-41
2022/08/31 05:47:21;;;;;;;6.50;2.90;;;;;;;;;;4935624;29;20090;-40
2022/08/31 05:49:47;;;;;;;3.28;2.97;;;;;;;;;;4935547;29;20127;-39
2022/08/31 05:52:12;;;;;;;4.88;2.83;;;;;;;;;;4934461;29;20109;-42
2022/08/31 05:54:38;;;;;;;4.75;4.20;;;;;;;;;;4935888;29;20353;-39
2022/08/31 05:57:05;;;;;;;9.82;7.00;;;;;;;;;;4935414;29;20525;-40
2022/08/31 05:59:32;;;;;;;13.52;7.80;;;;;;;;;;4935488;29;20123;-39
2022/08/31 06:01:58;;;;;;;8.77;6.53;;;;;;;;;;4935474;29;20035;-40
2022/08/31 06:04:24;;;;;;;3.55;2.88;;;;;;;;;;4935506;29;20071;-40
2022/08/31 06:06:50;;;;;;;2.92;2.60;;;;;;;;;;4935099;29;20468;-39
2022/08/31 06:09:16;;;;;;;4.93;2.95;;;;;;;;;;4935608;29;20361;-40
2022/08/31 06:11:41;;;;;;;8.98;4.63;;;;;;;;;;4935479;29;20112;-38
2022/08/31 06:14:08;;;;;;;12.55;3.00;;;;;;;;;;4935381;29;20484;-40
2022/08/31 06:16:34;;;;;;;3.90;2.80;;;;;;;;;;4935209;29;20476;-41
2022/08/31 06:19:05;;;;;;;4.63;3.00;;;;;;;;;;4933907;29;20043;-41
2022/08/31 06:21:34;;;;;;;9.77;3.20;;;;;;;;;;4935534;29;20495;-38
2022/08/31 06:24:03;;;;;;;4.32;2.78;;;;;;;;;;4935264;29;20031;-38
2022/08/31 06:26:31;;;;;;;5.03;2.53;;;;;;;;;;4935384;29;20032;-38
2022/08/31 06:28:58;;;;;;;3.15;2.85;;;;;;;;;;4935114;29;20020;-41
2022/08/31 06:31:30;;;;;;;3.65;2.67;;;;;;;;;;4935184;29;20023;-38
2022/08/31 06:33:58;;;;;;;2.58;2.38;;;;;;;;;;4935156;29;20027;-41
2022/08/31 06:36:26;;;;;;;7.50;2.40;;;;;;;;;;4935304;29;20028;-39
2022/08/31 06:38:54;;;;;;;5.20;2.60;;;;;;;;;;4935318;29;20028;-39
2022/08/31 06:41:23;;;;;;;5.05;2.40;;;;;;;;;;4938208;29;20116;-40
2022/08/31 06:43:49;;;;;;;7.85;2.80;;;;;;;;;;4938880;29;20051;-40
2022/08/31 06:46:16;;;;;;;2.42;2.15;;;;;;;;;;4938876;29;20064;-39
2022/08/31 06:48:42;;;;;;;7.90;2.70;;;;;;;;;;4938668;29;20060;-40
2022/08/31 06:51:09;;;;;;;2.75;2.30;;;;;;;;;;4939253;29;20376;-42
2022/08/31 06:53:35;;;;;;;3.67;2.80;;;;;;;;;;4938778;29;20028;-40
2022/08/31 06:56:05;;;;;;;5.78;2.80;;;;;;;;;;4939070;29;20535;-38
2022/08/31 06:58:32;;;;;;;9.02;3.58;;;;;;;;;;4938965;29;20036;-40
2022/08/31 07:01:07;;;;;;;5.68;2.30;;;;;;;;;;4938568;29;20453;-37
2022/08/31 07:03:36;;;;;;;2.42;1.38;;;;;;;;;;4938726;29;20039;-39
2022/08/31 07:06:11;;;;;;;4.25;2.22;;;;;;;;;;4938375;29;20035;-40
2022/08/31 07:08:38;;;;;;;3.10;2.60;;;;;;;;;;4938735;29;20106;-40
2022/08/31 07:11:10;;;;;;;6.50;2.65;;;;;;;;;;4938400;29;20310;-40
2022/08/31 07:13:37;;;;;;;6.88;2.90;;;;;;;;;;4937212;29;20082;-39
2022/08/31 07:16:07;;;;;;;9.55;2.67;;;;;;;;;;4938120;29;20448;-40
2022/08/31 07:18:33;;;;;;;5.07;2.85;;;;;;;;;;4938703;29;20024;-40
2022/08/31 07:21:41;;;;;;;3.03;2.20;;;;;;;;;;4937132;29;20099;-38
2022/08/31 07:24:08;;;;;;;4.63;2.83;;;;;;;;;;4932843;29;20042;-39
2022/08/31 07:26:47;;;;;;;6.13;3.72;;;;;;;;;;4938099;29;20417;-38
2022/08/31 07:29:16;;;;;;;4.97;2.90;;;;;;;;;;4938078;29;20034;-39
2022/08/31 07:31:49;;;;;;;6.30;2.33;;;;;;;;;;4938102;29;20032;-38
2022/08/31 07:34:18;;;;;;;6.30;2.80;;;;;;;;;;4938097;29;20031;-38
2022/08/31 07:42:30;;;;;;;5.35;4.20;;;;;;;;;;4938068;29;20039;-40
2022/08/31 07:44:58;;;;;;;4.20;2.85;;;;;;;;;;4938186;29;20031;-39
2022/08/31 07:47:27;;;;;;;5.20;3.15;;;;;;;;;;4938203;29;20476;-41
2022/08/31 07:49:54;;;;;;;;;;;;;;;;;;4938093;29;20052;-40
2022/08/31 07:52:23;;;;;;;11.13;3.17;;;;;;;;;;4937673;29;19915;-42
2022/08/31 07:54:51;;;;;;;7.78;5.65;;;;;;;;;;4938114;29;20045;-42
2022/08/31 07:57:18;;;;;;;12.38;8.18;;;;;;;;;;4937844;29;20424;-41
2022/08/31 07:59:45;;;;;;;5.47;2.25;;;;;;;;;;4937583;29;20028;-39
2022/08/31 08:02:13;;;;;;;3.20;2.17;;;;;;;;;;4937574;29;20042;-37
2022/08/31 08:04:39;;;;;;;10.05;3.22;;;;;;;;;;4937578;29;20082;-41
2022/08/31 08:07:06;;;;;;;7.05;2.15;;;;;;;;;;4937471;29;20066;-37
2022/08/31 08:09:32;;;;;;;3.30;2.45;;;;;;;;;;4937721;29;20027;-41
2022/08/31 08:12:03;;;;;;;1.80;1.65;;;;;;;;;;4937479;29;20074;-39
2022/08/31 08:14:29;;;;;;;5.43;2.45;;;;;;;;;;4937772;29;20125;-39
2022/08/31 08:16:55;;;;;;;6.53;2.05;;;;;;;;;;4937357;29;20028;-37
2022/08/31 08:19:21;;;;;;;4.00;2.75;;;;;;;;;;4937311;29;20488;-38
2022/08/31 08:21:47;;;;;;;2.90;2.22;;;;;;;;;;4937499;29;20356;-42
2022/08/31 08:24:14;;;;;;;21.27;3.92;;;;;;;;;;4937427;29;20024;-44
2022/08/31 08:26:45;;;;;;;3.33;1.40;;;;;;;;;;4937088;29;20035;-44
2022/08/31 08:29:11;;;;;;;5.57;2.30;;;;;;;;;;4937411;29;20047;-41
2022/08/31 08:31:37;;;;;;;2.13;2.00;;;;;;;;;;4937107;29;20070;-39
2022/08/31 08:34:03;;;;;;;8.30;2.60;;;;;;;;;;4936981;29;20413;-38
2022/08/31 08:36:39;;;;;;;5.47;2.15;;;;;;;;;;4934721;29;20061;-41
2022/08/31 08:39:07;;;;;;;2.92;2.08;;;;;;;;;;4935385;29;20031;-42
2022/08/31 08:41:36;;;;;;;3.55;2.22;;;;;;;;;;4935110;29;20027;-43
2022/08/31 08:44:06;;;;;;;2.70;2.30;;;;;;;;;;4935037;29;20456;-38
2022/08/31 08:46:49;;;;;;;5.32;2.00;;;;;;;;;;4934898;29;20043;-38
2022/08/31 08:49:35;;;;;;;5.30;2.60;;;;;;;;;;4936149;29;20047;-42
2022/08/31 08:52:09;;;;;;;18.48;4.38;;;;;;;;;;4934912;29;20099;-39
2022/08/31 08:54:39;;;;;;;4.10;2.63;;;;;;;;;;4935741;29;20516;-40
2022/08/31 08:57:16;;;;;;;;;;;;;;;;;;4936805;29;20035;-38
2022/08/31 08:59:44;;;;;;;2.65;2.13;;;;;;;;;;4936691;29;19922;-40
2022/08/31 09:02:38;;;;;;;4.22;2.40;;;;;;;;;;4936017;29;20111;-41
2022/08/31 09:05:14;;;;;;;5.45;2.38;;;;;;;;;;4933736;29;20094;-38
2022/08/31 09:08:29;;;;;;;4.80;2.50;;;;;;;;;;4935696;29;20484;-38
2022/08/31 09:11:21;;;;;;;5.40;2.65;;;;;;;;;;4887670;29;20488;-39
2022/08/31 09:14:14;;;;;;;3.95;2.17;;;;;;;;;;4934554;29;20047;-38
2022/08/31 09:17:05;;;;;;;4.55;2.55;;;;;;;;;;4934113;29;20031;-39
2022/08/31 09:19:57;;;;;;;10.75;2.75;;;;;;;;;;4934343;29;20079;-39
2022/08/31 09:22:16;;;;;;;3.95;2.60;;;;;;;;;;4934050;29;20062;-38
2022/08/31 09:24:42;;;;;;;9.65;5.45;;;;;;;;;;4934299;29;20642;-40
2022/08/31 09:27:19;;;;;;;5.20;3.03;;;;;;;;;;4934290;29;20024;-40
2022/08/31 09:29:59;;;;;;;5.03;3.67;;;;;;;;;;4933636;29;20448;-45
2022/08/31 09:32:30;;;;;;;10.10;5.88;;;;;;;;;;4930182;29;20118;-40
2022/08/31 09:35:02;;;;;;;10.73;6.45;;;;;;;;;;4933415;29;20372;-43
2022/08/31 09:37:43;;;;;;;13.15;3.10;;;;;;;;;;4932763;29;20551;-40
2022/08/31 09:40:19;;;;;;;6.43;3.00;;;;;;;;;;4933229;29;20038;-39
2022/08/31 09:42:59;;;;;;;6.78;2.10;;;;;;;;;;4932739;29;20159;-39
2022/08/31 09:45:34;;;;;;;4.05;1.92;;;;;;;;;;4932946;29;20365;-38
2022/08/31 09:48:04;;;;;;;2.47;1.85;;;;;;;;;;4932990;29;20479;-40
2022/08/31 09:50:43;;;;;;;22.80;2.85;;;;;;;;;;4949235;29;20043;-37
2022/08/31 09:56:12;;;;;;;;;;;;;;;;;;4952185;29;20074;-37
2022/08/31 09:58:40;;;;;;;;;;;;;;;;;;4952012;29;19965;-38
2022/08/31 10:01:12;;;;;;;8.35;2.88;;;;;;;;;;4951142;29;19911;-38
2022/08/31 10:03:44;;;;;;;4.53;1.70;;;;;;;;;;4951520;29;20468;-39
2022/08/31 10:06:29;;;;;;;3.92;2.22;;;;;;;;;;4951623;29;20030;-38
2022/08/31 10:08:59;;;;;;;3.45;2.97;;;;;;;;;;4952035;29;20086;-39
2022/08/31 10:11:30;;;;;;;3.42;2.22;;;;;;;;;;4951278;29;20106;-41
2022/08/31 10:14:08;;;;;;;2.25;2.00;;;;;;;;;;4950962;29;20027;-38
2022/08/31 10:16:36;;;;;;;2.90;2.25;;;;;;;;;;4951295;29;20039;-38
2022/08/31 10:19:15;;;;;;;4.00;2.17;;;;;;;;;;4951357;29;20039;-38
2022/08/31 10:21:52;;;;;;;3.65;2.70;;;;;;;;;;4951490;29;20070;-38
2022/08/31 10:24:46;;;;;;;7.85;2.10;;;;;;;;;;4951305;29;20028;-43
2022/08/31 10:27:39;;;;;;;5.35;2.65;;;;;;;;;;4951188;29;20028;-41
2022/08/31 10:30:38;;;;;;;5.82;2.35;;;;;;;;;;4940561;29;20043;-44
2022/08/31 10:33:06;;;;;;;;;;;;;;;;;;4880262;29;20048;-40
2022/08/31 10:35:36;;;;;;;11.30;2.27;;;;;;;;;;4913237;29;19990;-37
2022/08/31 10:38:29;;;;;;;3.17;2.22;;;;;;;;;;4913093;29;20032;-39
2022/08/31 10:41:21;;;;;;;4.65;2.22;;;;;;;;;;4912039;29;20044;-39
2022/08/31 10:44:22;;;;;;;4.05;2.25;;;;;;;;;;4896385;29;20044;-41
2022/08/31 10:46:49;;;;;;;4.47;1.95;;;;;;;;;;4913135;29;20044;-37
2022/08/31 10:49:15;;;;;;;7.45;2.30;;;;;;;;;;4912857;29;20500;-39
2022/08/31 10:52:02;;;;;;;2.58;2.38;;;;;;;;;;4913284;29;20036;-39
2022/08/31 10:55:04;;;;;;;6.07;2.60;;;;;;;;;;4912988;29;20564;-38
2022/08/31 10:57:56;;;;;;;2.50;2.17;;;;;;;;;;4913072;29;20036;-39
2022/08/31 11:00:47;;;;;;;6.43;2.28;;;;;;;;;;4912841;29;20091;-40
2022/08/31 11:03:51;;;;;;;1.60;1.50;;;;;;;;;;4912979;29;20048;-41
2022/08/31 11:06:33;;;;;;;4.03;2.08;;;;;;;;;;4912217;29;20048;-38
2022/08/31 11:09:24;;;;;;;6.15;2.35;;;;;;;;;;4911716;29;20030;-39
2022/08/31 11:11:56;;;;;;;4.68;2.55;;;;;;;;;;4912232;29;20046;-38
2022/08/31 11:15:01;;;;;;;4.40;2.10;;;;;;;;;;4912715;29;20115;-39
2022/08/31 11:17:48;;;;;;;5.55;2.35;;;;;;;;;;4912350;29;20032;-39
2022/08/31 11:20:39;;;;;;;11.43;2.50;;;;;;;;;;4912760;29;20028;-41
2022/08/31 11:23:16;;;;;;;3.90;2.30;;;;;;;;;;4912238;29;20123;-38
2022/08/31 11:26:00;;;;;;;3.25;2.70;;;;;;;;;;4924884;29;20047;-42
2022/08/31 11:28:47;;;;;;;5.95;2.25;;;;;;;;;;4934250;29;20031;-39
2022/08/31 11:31:26;;;;;;;2.95;1.95;;;;;;;;;;4932168;29;20061;-39
2022/08/31 11:34:14;;;;;;;2.90;2.20;;;;;;;;;;4934799;29;20721;-40
2022/08/31 11:37:03;;;;;;;3.58;2.70;;;;;;;;;;4935110;29;20046;-38
2022/08/31 11:39:29;;;;;;;8.75;2.65;;;;;;;;;;4935037;29;20035;-39
2022/08/31 11:41:55;;;;;;;17.15;3.58;;;;;;;;;;4934830;29;20051;-37
2022/08/31 11:44:38;;;;;;;4.18;2.75;;;;;;;;;;4933919;29;20057;-42
2022/08/31 11:47:28;;;;;;;8.70;3.05;;;;;;;;;;4935088;29;20392;-38
2022/08/31 11:50:01;;;;;;;4.93;2.78;;;;;;;;;;4933224;29;20094;-36
2022/08/31 11:52:41;;;;;;;3.05;2.53;;;;;;;;;;4935628;29;20116;-36
2022/08/31 11:55:09;;;;;;;3.08;2.50;;;;;;;;;;4934623;29;20059;-37
2022/08/31 11:58:05;;;;;;;4.82;2.70;;;;;;;;;;4935636;29;20305;-39
2022/08/31 12:01:01;;;;;;;4.90;2.00;;;;;;;;;;4934563;29;20035;-39
2022/08/31 12:03:37;;;;;;;4.85;2.38;;;;;;;;;;4935919;29;20147;-38
2022/08/31 12:06:04;;;;;;;6.53;3.05;;;;;;;;;;4936187;29;20110;-45
2022/08/31 12:08:51;;;;;;;7.47;2.65;;;;;;;;;;4936214;29;20428;-39
2022/08/31 12:12:05;;;;;;;3.95;2.35;;;;;;;;;;4935918;29;20050;-38
2022/08/31 12:14:50;;;;;;;2.65;2.40;;;;;;;;;;4927332;29;20036;-38
2022/08/31 12:17:20;;;;;;;16.73;2.58;;;;;;;;;;4935892;29;20035;-43
2022/08/31 12:20:01;;;;;;;2.83;2.45;;;;;;;;;;4935686;29;20032;-36
2022/08/31 12:26:06;;;;;;;4.20;2.17;;;;;;;;;;4935567;29;20123;-38
2022/08/31 12:28:53;;;;;;;6.55;2.40;;;;;;;;;;4924452;29;20035;-37
2022/08/31 12:31:18;;;;;;;12.70;2.65;;;;;;;;;;4935363;29;20031;-36
2022/08/31 12:34:02;;;;;;;6.65;3.78;;;;;;;;;;4935209;29;20035;-39
2022/08/31 12:36:30;;;;;;;6.43;4.10;;;;;;;;;;4935510;29;20040;-37
2022/08/31 12:39:08;;;;;;;9.68;2.70;;;;;;;;;;4934351;29;20032;-39
2022/08/31 12:41:36;;;;;;;63.80;5.23;;;;;;;;;;4935229;29;20027;-37
2022/08/31 12:44:03;;;;;;;6.50;2.53;;;;;;;;;;4934705;29;20027;-37
2022/08/31 12:46:37;;;;;;;3.10;1.88;;;;;;;;;;4935394;29;20404;-36
2022/08/31 12:49:15;;;;;;;40.15;4.45;;;;;;;;;;4934966;29;20052;-36
2022/08/31 12:51:43;;;;;;;721.85;48.88;;;;;;;;;;4935073;29;20035;-37
2022/08/31 12:54:34;;;;;;;5.40;2.35;;;;;;;;;;4935023;29;20036;-40
2022/08/31 12:57:10;;;;;;;5.60;2.88;;;;;;;;;;4934881;29;20031;-37
2022/08/31 12:59:55;;;;;;;2.20;2.00;;;;;;;;;;4935010;29;20019;-36
2022/08/31 13:02:21;;;;;;;4.68;2.38;;;;;;;;;;4934828;29;20039;-42
2022/08/31 13:04:47;;;;;;;20.05;2.72;;;;;;;;;;4934626;29;20388;-37
2022/08/31 13:07:20;;;;;;;26.70;3.58;;;;;;;;;;4934578;29;20039;-40
2022/08/31 13:09:46;;;;;;;120.13;10.10;;;;;;;;;;4933015;29;20023;-40
2022/08/31 13:12:22;;;;;;;151.18;10.15;;;;;;;;;;4933515;29;20039;-40
2022/08/31 13:14:47;;;;;;;4.05;2.50;;;;;;;;;;4933009;29;20040;-37
2022/08/31 13:17:17;;;;;;;12.52;3.17;;;;;;;;;;4933489;29;20031;-36
2022/08/31 13:19:52;;;;;;;3.28;2.38;;;;;;;;;;4933678;29;20031;-37
2022/08/31 13:22:29;;;;;;;4.25;2.40;;;;;;;;;;4933814;29;20038;-37
2022/08/31 13:24:57;;;;;;;3.25;2.42;;;;;;;;;;4934058;29;20063;-36
2022/08/31 13:27:24;;;;;;;4.15;2.67;;;;;;;;;;4934374;29;20059;-36
2022/08/31 13:29:54;;;;;;;5.68;2.47;;;;;;;;;;4933327;29;20369;-36
2022/08/31 13:32:20;;;;;;;4.22;2.47;;;;;;;;;;4934497;29;20039;-36
2022/08/31 13:34:46;;;;;;;6.32;4.60;;;;;;;;;;4933041;29;20035;-37
2022/08/31 13:37:26;;;;;;;4.03;3.38;;;;;;;;;;4934049;29;20575;-38
2022/08/31 13:39:53;;;;;;;3.90;2.25;;;;;;;;;;4934273;29;20035;-37
2022/08/31 13:42:57;;;;;;;5.18;2.53;;;;;;;;;;4934506;29;20031;-37
2022/08/31 13:45:25;;;;;;;18.70;3.20;;;;;;;;;;4875204;29;20033;-36
2022/08/31 13:47:55;;;;;;;4.32;3.60;;;;;;;;;;4922925;29;20044;-37
2022/08/31 13:50:23;;;;;;;15.40;3.88;;;;;;;;;;4933407;29;20539;-37
2022/08/31 13:52:54;;;;;;;5.47;3.03;;;;;;;;;;4934257;29;20035;-38
2022/08/31 13:55:42;;;;;;;17.35;2.90;;;;;;;;;;4933869;29;20020;-37
2022/08/31 13:58:27;;;;;;;7.80;3.35;;;;;;;;;;4934056;29;20043;-37
2022/08/31 14:01:22;;;;;;;4.40;1.73;;;;;;;;;;4916903;29;20067;-38
2022/08/31 14:03:58;;;;;;;1.95;1.80;;;;;;;;;;4933808;29;20503;-36
2022/08/31 14:06:25;;;;;;;3.08;1.95;;;;;;;;;;4933824;29;20484;-37
2022/08/31 14:09:02;;;;;;;2.10;1.88;;;;;;;;;;4933752;29;20622;-36
2022/08/31 14:11:29;;;;;;;3.85;2.50;;;;;;;;;;4933792;29;20499;-37
2022/08/31 14:14:06;;;;;;;3.33;2.65;;;;;;;;;;4933998;29;20087;-37
2022/08/31 14:16:39;;;;;;;3.92;2.60;;;;;;;;;;4933448;29;20035;-36
2022/08/31 14:19:26;;;;;;;4.45;2.92;;;;;;;;;;4933665;29;20024;-37
2022/08/31 14:21:52;;;;;;;10.55;3.13;;;;;;;;;;4933288;29;20083;-36
2022/08/31 14:24:19;;;;;;;8.18;3.60;;;;;;;;;;4933340;29;20035;-38
2022/08/31 14:26:44;;;;;;;4.85;3.83;;;;;;;;;;4933870;29;20063;-37
2022/08/31 14:29:15;;;;;;;10.88;3.63;;;;;;;;;;4933408;29;20063;-37
2022/08/31 14:31:50;;;;;;;5.22;4.70;;;;;;;;;;4933471;29;20040;-38
2022/08/31 14:34:20;;;;;;;6.72;5.38;;;;;;;;;;4933355;29;20110;-37
2022/08/31 14:36:51;;;;;;;6.40;4.40;;;;;;;;;;4933385;29;20079;-37
2022/08/31 14:39:26;;;;;;;19.35;3.35;;;;;;;;;;4933512;29;20031;-37
2022/08/31 14:41:54;;;;;;;16.85;3.92;;;;;;;;;;4932046;29;20036;-37
2022/08/31 14:44:24;;;;;;;5.50;2.63;;;;;;;;;;4931947;29;20038;-37
2022/08/31 14:46:50;;;;;;;6.63;4.18;;;;;;;;;;4933582;29;20036;-40
2022/08/31 14:49:15;;;;;;;6.07;4.00;;;;;;;;;;4932997;29;20066;-37
2022/08/31 14:51:42;;;;;;;4.43;3.75;;;;;;;;;;4933317;29;20035;-37
2022/08/31 14:54:10;;;;;;;5.50;4.50;;;;;;;;;;4933191;29;20115;-37
2022/08/31 14:56:46;;;;;;;21.58;3.55;;;;;;;;;;4933216;29;20032;-38
2022/08/31 14:59:14;;;;;;;9.07;7.38;;;;;;;;;;4933339;29;20063;-37
2022/08/31 15:01:44;;;;;;;44.22;18.02;;;;;;;;;;4935049;29;20106;-39
2022/08/31 15:04:16;;;;;;;4.93;1.98;;;;;;;;;;4936888;29;20035;-41
2022/08/31 15:06:45;;;;;;;5.03;2.80;;;;;;;;;;4937509;29;20426;-39
2022/08/31 15:09:11;;;;;;;;;;;;;;;;;;4937801;29;20031;-35
2022/08/31 15:11:38;;;;;;;8.60;3.40;;;;;;;;;;4936929;29;20287;-36
2022/08/31 15:14:10;;;;;;;4.70;2.85;;;;;;;;;;4936764;29;20035;-37
2022/08/31 15:16:45;;;;;;;22.48;2.50;;;;;;;;;;4936546;29;20038;-40
2022/08/31 15:19:14;;;;;;;12.98;3.65;;;;;;;;;;4934123;29;20098;-38
2022/08/31 15:21:50;;;;;;;17.02;3.55;;;;;;;;;;4936099;29;20030;-38
2022/08/31 15:24:20;;;;;;;26.33;4.05;;;;;;;;;;4936785;29;20559;-36